sensor_id;sensor_type;location;lat;lon;timestamp;pressure;altitude;pressure_sealevel;temperature;humidity
23427;BME280;41148;45.420;10.952;2023-10-08T00:01:21;101503.41;;;18.12;88.65
23427;BME280;41148;45.420;10.952;2023-10-08T00:03:49;101504.59;;;18.07;88.99
23427;BME280;41148;45.420;10.952;2023-10-08T00:06:26;101511.31;;;18.17;88.69
23427;BME280;41148;45.420;10.952;2023-10-08T00:08:55;101503.56;;;18.09;88.43
23427;BME280;41148;45.420;10.952;2023-10-08T00:11:28;101506.03;;;18.14;88.45
23427;BME280;41148;45.420;10.952;2023-10-08T00:13:59;101505.84;;;18.18;87.75
23427;BME280;41148;45.420;10.952;2023-10-08T00:16:28;101489.38;;;18.24;87.39
23427;BME280;41148;45.420;10.952;2023-10-08T00:18:56;101497.53;;;18.23;87.53
23427;BME280;41148;45.420;10.952;2023-10-08T00:21:27;101491.25;;;18.22;87.39
23427;BME280;41148;45.420;10.952;2023-10-08T00:23:55;101492.78;;;18.09;88.39
23427;BME280;41148;45.420;10.952;2023-10-08T00:26:28;101498.03;;;18.12;88.86
23427;BME280;41148;45.420;10.952;2023-10-08T00:29:04;101490.72;;;18.14;88.72
23427;BME280;41148;45.420;10.952;2023-10-08T00:31:44;101477.47;;;18.10;88.57
23427;BME280;41148;45.420;10.952;2023-10-08T00:34:17;101492.78;;;18.09;88.90
23427;BME280;41148;45.420;10.952;2023-10-08T00:36:48;101482.94;;;18.08;88.64
23427;BME280;41148;45.420;10.952;2023-10-08T00:39:17;101480.41;;;18.05;89.18
23427;BME280;41148;45.420;10.952;2023-10-08T00:41:52;101484.25;;;17.99;89.73
23427;BME280;41148;45.420;10.952;2023-10-08T00:44:27;101461.53;;;18.05;89.35
23427;BME280;41148;45.420;10.952;2023-10-08T00:47:00;101466.78;;;18.08;89.20
23427;BME280;41148;45.420;10.952;2023-10-08T00:49:29;101465.66;;;18.12;88.74
23427;BME280;41148;45.420;10.952;2023-10-08T00:52:00;101465.53;;;18.15;88.71
23427;BME280;41148;45.420;10.952;2023-10-08T00:54:48;101454.25;;;18.07;89.16
23427;BME280;41148;45.420;10.952;2023-10-08T00:57:22;101461.69;;;17.82;89.44
23427;BME280;41148;45.420;10.952;2023-10-08T00:59:50;101450.84;;;17.63;90.04
23427;BME280;41148;45.420;10.952;2023-10-08T01:02:30;101451.00;;;17.60;90.71
23427;BME280;41148;45.420;10.952;2023-10-08T01:05:14;101439.13;;;17.64;90.12
23427;BME280;41148;45.420;10.952;2023-10-08T01:07:52;101441.97;;;17.61;90.39
23427;BME280;41148;45.420;10.952;2023-10-08T01:10:20;101447.09;;;17.67;89.71
23427;BME280;41148;45.420;10.952;2023-10-08T01:12:51;101438.94;;;17.68;89.50
23427;BME280;41148;45.420;10.952;2023-10-08T01:15:22;101450.06;;;17.61;90.09
23427;BME280;41148;45.420;10.952;2023-10-08T01:17:57;101440.22;;;17.60;90.47
23427;BME280;41148;45.420;10.952;2023-10-08T01:20:28;101443.88;;;17.59;89.94
23427;BME280;41148;45.420;10.952;2023-10-08T01:23:06;101436.56;;;17.61;90.13
23427;BME280;41148;45.420;10.952;2023-10-08T01:25:38;101437.22;;;17.66;89.38
23427;BME280;41148;45.420;10.952;2023-10-08T01:28:06;101438.25;;;17.63;89.17
23427;BME280;41148;45.420;10.952;2023-10-08T01:30:59;101429.44;;;17.60;89.22
23427;BME280;41148;45.420;10.952;2023-10-08T01:33:28;101429.22;;;17.64;88.89
23427;BME280;41148;45.420;10.952;2023-10-08T01:35:56;101436.19;;;17.70;88.48
23427;BME280;41148;45.420;10.952;2023-10-08T01:38:31;101434.38;;;17.70;87.85
23427;BME280;41148;45.420;10.952;2023-10-08T01:41:00;101427.16;;;17.71;87.49
23427;BME280;41148;45.420;10.952;2023-10-08T01:43:37;101405.72;;;17.68;87.50
23427;BME280;41148;45.420;10.952;2023-10-08T01:46:06;101413.69;;;17.71;87.22
23427;BME280;41148;45.420;10.952;2023-10-08T01:48:39;101419.81;;;17.74;86.22
23427;BME280;41148;45.420;10.952;2023-10-08T01:51:06;101426.00;;;17.56;86.82
23427;BME280;41148;45.420;10.952;2023-10-08T01:53:39;101419.09;;;17.51;87.64
23427;BME280;41148;45.420;10.952;2023-10-08T01:56:06;101398.34;;;17.32;88.71
23427;BME280;41148;45.420;10.952;2023-10-08T01:58:34;101405.41;;;17.35;88.52
23427;BME280;41148;45.420;10.952;2023-10-08T02:01:02;101392.09;;;17.32;88.13
23427;BME280;41148;45.420;10.952;2023-10-08T02:03:32;101402.94;;;17.30;88.01
23427;BME280;41148;45.420;10.952;2023-10-08T02:06:02;101409.06;;;17.34;87.54
23427;BME280;41148;45.420;10.952;2023-10-08T02:08:33;101403.97;;;17.28;88.32
23427;BME280;41148;45.420;10.952;2023-10-08T02:11:00;101409.69;;;17.20;88.69
23427;BME280;41148;45.420;10.952;2023-10-08T02:13:29;101411.50;;;17.20;88.19
23427;BME280;41148;45.420;10.952;2023-10-08T02:16:02;101401.13;;;17.31;87.91
23427;BME280;41148;45.420;10.952;2023-10-08T02:18:30;101405.94;;;17.43;87.29
23427;BME280;41148;45.420;10.952;2023-10-08T02:20:58;101405.34;;;17.36;87.71
23427;BME280;41148;45.420;10.952;2023-10-08T02:23:26;101402.41;;;17.22;88.54
23427;BME280;41148;45.420;10.952;2023-10-08T02:25:56;101403.97;;;17.28;88.34
23427;BME280;41148;45.420;10.952;2023-10-08T02:28:25;101395.34;;;17.20;88.32
23427;BME280;41148;45.420;10.952;2023-10-08T02:30:54;101378.34;;;17.17;88.72
23427;BME280;41148;45.420;10.952;2023-10-08T02:33:22;101390.28;;;17.12;89.08
23427;BME280;41148;45.420;10.952;2023-10-08T02:35:49;101375.88;;;17.13;89.22
23427;BME280;41148;45.420;10.952;2023-10-08T02:38:19;101391.97;;;17.14;89.10
23427;BME280;41148;45.420;10.952;2023-10-08T02:40:49;101379.44;;;17.13;89.41
23427;BME280;41148;45.420;10.952;2023-10-08T02:43:17;101371.44;;;17.12;89.23
23427;BME280;41148;45.420;10.952;2023-10-08T02:45:45;101380.72;;;17.05;89.90
23427;BME280;41148;45.420;10.952;2023-10-08T02:48:17;101388.25;;;17.17;89.34
23427;BME280;41148;45.420;10.952;2023-10-08T02:50:46;101385.22;;;17.25;88.85
23427;BME280;41148;45.420;10.952;2023-10-08T02:53:14;101361.06;;;17.23;88.60
23427;BME280;41148;45.420;10.952;2023-10-08T02:55:51;101377.22;;;17.23;88.55
23427;BME280;41148;45.420;10.952;2023-10-08T02:58:19;101369.75;;;17.30;88.19
23427;BME280;41148;45.420;10.952;2023-10-08T03:00:48;101371.56;;;17.29;87.86
23427;BME280;41148;45.420;10.952;2023-10-08T03:03:17;101349.00;;;17.32;88.03
23427;BME280;41148;45.420;10.952;2023-10-08T03:05:52;101350.63;;;17.15;88.26
23427;BME280;41148;45.420;10.952;2023-10-08T03:08:20;101363.69;;;17.25;88.09
23427;BME280;41148;45.420;10.952;2023-10-08T03:10:52;101348.88;;;17.14;88.52
23427;BME280;41148;45.420;10.952;2023-10-08T03:13:24;101355.28;;;17.12;88.57
23427;BME280;41148;45.420;10.952;2023-10-08T03:15:54;101357.66;;;17.20;87.87
23427;BME280;41148;45.420;10.952;2023-10-08T03:18:30;101348.88;;;17.14;86.86
23427;BME280;41148;45.420;10.952;2023-10-08T03:21:06;101354.28;;;17.14;86.19
23427;BME280;41148;45.420;10.952;2023-10-08T03:24:09;101338.41;;;17.08;86.03
23427;BME280;41148;45.420;10.952;2023-10-08T03:26:40;101344.66;;;17.09;86.37
23427;BME280;41148;45.420;10.952;2023-10-08T03:29:07;101363.84;;;17.01;85.67
23427;BME280;41148;45.420;10.952;2023-10-08T03:31:43;101347.41;;;17.07;84.86
23427;BME280;41148;45.420;10.952;2023-10-08T03:34:19;101344.78;;;17.06;85.06
23427;BME280;41148;45.420;10.952;2023-10-08T03:36:48;101351.41;;;16.99;85.46
23427;BME280;41148;45.420;10.952;2023-10-08T03:39:18;101361.75;;;16.87;86.22
23427;BME280;41148;45.420;10.952;2023-10-08T03:41:48;101356.28;;;16.69;86.75
23427;BME280;41148;45.420;10.952;2023-10-08T03:44:35;101355.56;;;16.85;86.31
23427;BME280;41148;45.420;10.952;2023-10-08T03:47:05;101339.81;;;16.76;86.46
23427;BME280;41148;45.420;10.952;2023-10-08T03:49:38;101351.38;;;16.78;86.53
23427;BME280;41148;45.420;10.952;2023-10-08T03:52:13;101354.06;;;16.56;87.18
23427;BME280;41148;45.420;10.952;2023-10-08T03:54:40;101357.31;;;16.65;86.89
23427;BME280;41148;45.420;10.952;2023-10-08T03:57:16;101354.94;;;16.79;86.93
23427;BME280;41148;45.420;10.952;2023-10-08T03:59:53;101332.81;;;16.72;87.34
23427;BME280;41148;45.420;10.952;2023-10-08T04:02:26;101335.25;;;16.56;87.88
23427;BME280;41148;45.420;10.952;2023-10-08T04:05:23;101338.56;;;16.63;87.74
23427;BME280;41148;45.420;10.952;2023-10-08T04:07:55;101326.13;;;16.60;86.99
23427;BME280;41148;45.420;10.952;2023-10-08T04:10:29;101335.38;;;16.53;87.40
23427;BME280;41148;45.420;10.952;2023-10-08T04:13:06;101339.75;;;16.56;87.05
23427;BME280;41148;45.420;10.952;2023-10-08T04:15:37;101344.50;;;16.49;86.98
23427;BME280;41148;45.420;10.952;2023-10-08T04:18:09;101333.25;;;16.62;85.94
23427;BME280;41148;45.420;10.952;2023-10-08T04:20:37;101335.25;;;16.56;85.29
23427;BME280;41148;45.420;10.952;2023-10-08T04:23:07;101338.50;;;16.65;85.84
23427;BME280;41148;45.420;10.952;2023-10-08T04:25:46;101320.78;;;16.59;86.27
23427;BME280;41148;45.420;10.952;2023-10-08T04:28:21;101338.41;;;16.66;87.12
23427;BME280;41148;45.420;10.952;2023-10-08T04:30:48;101322.50;;;16.62;87.10
23427;BME280;41148;45.420;10.952;2023-10-08T04:33:18;101350.00;;;16.68;87.04
23427;BME280;41148;45.420;10.952;2023-10-08T04:35:47;101324.91;;;16.68;86.84
23427;BME280;41148;45.420;10.952;2023-10-08T04:38:24;101323.81;;;16.51;87.41
23427;BME280;41148;45.420;10.952;2023-10-08T04:40:54;101328.75;;;16.40;88.28
23427;BME280;41148;45.420;10.952;2023-10-08T04:43:23;101335.69;;;16.46;88.51
23427;BME280;41148;45.420;10.952;2023-10-08T04:45:55;101341.44;;;16.58;87.30
23427;BME280;41148;45.420;10.952;2023-10-08T04:48:26;101335.00;;;16.63;86.96
23427;BME280;41148;45.420;10.952;2023-10-08T04:50:59;101335.97;;;16.82;85.51
23427;BME280;41148;45.420;10.952;2023-10-08T04:53:32;101341.28;;;16.83;85.58
23427;BME280;41148;45.420;10.952;2023-10-08T04:56:07;101337.03;;;16.78;86.27
23427;BME280;41148;45.420;10.952;2023-10-08T04:58:41;101340.56;;;16.80;86.55
23427;BME280;41148;45.420;10.952;2023-10-08T05:01:08;101335.19;;;16.80;86.23
23427;BME280;41148;45.420;10.952;2023-10-08T05:03:51;101346.81;;;16.80;86.30
23427;BME280;41148;45.420;10.952;2023-10-08T05:06:41;101345.25;;;16.75;86.25
23427;BME280;41148;45.420;10.952;2023-10-08T05:09:12;101348.31;;;16.66;86.89
23427;BME280;41148;45.420;10.952;2023-10-08T05:11:51;101338.16;;;16.30;88.00
23427;BME280;41148;45.420;10.952;2023-10-08T05:14:23;101355.66;;;16.40;88.32
23427;BME280;41148;45.420;10.952;2023-10-08T05:17:07;101345.16;;;16.34;88.45
23427;BME280;41148;45.420;10.952;2023-10-08T05:19:49;101351.19;;;16.41;88.30
23427;BME280;41148;45.420;10.952;2023-10-08T05:22:35;101343.50;;;16.31;88.70
23427;BME280;41148;45.420;10.952;2023-10-08T05:25:06;101349.41;;;16.40;88.39
23427;BME280;41148;45.420;10.952;2023-10-08T05:27:56;101354.75;;;16.41;88.41
23427;BME280;41148;45.420;10.952;2023-10-08T05:30:28;101348.13;;;16.48;88.22
23427;BME280;41148;45.420;10.952;2023-10-08T05:33:09;101341.56;;;16.55;87.17
23427;BME280;41148;45.420;10.952;2023-10-08T05:35:52;101334.44;;;16.54;87.51
23427;BME280;41148;45.420;10.952;2023-10-08T05:38:45;101346.63;;;16.63;87.11
23427;BME280;41148;45.420;10.952;2023-10-08T05:41:17;101339.25;;;16.68;86.82
23427;BME280;41148;45.420;10.952;2023-10-08T05:43:55;101345.00;;;16.59;87.32
23427;BME280;41148;45.420;10.952;2023-10-08T05:46:41;101341.47;;;16.37;87.91
23427;BME280;41148;45.420;10.952;2023-10-08T05:49:22;101360.66;;;16.27;89.00
23427;BME280;41148;45.420;10.952;2023-10-08T05:51:59;101356.72;;;16.36;88.36
23427;BME280;41148;45.420;10.952;2023-10-08T05:54:26;101334.09;;;16.42;88.10
23427;BME280;41148;45.420;10.952;2023-10-08T05:59:44;101361.88;;;16.42;88.42
23427;BME280;41148;45.420;10.952;2023-10-08T06:02:29;101358.91;;;16.48;88.40
23427;BME280;41148;45.420;10.952;2023-10-08T06:05:05;101375.81;;;16.52;88.21
23427;BME280;41148;45.420;10.952;2023-10-08T06:07:45;101371.03;;;16.58;88.02
23427;BME280;41148;45.420;10.952;2023-10-08T06:10:26;101370.84;;;16.63;88.40
23427;BME280;41148;45.420;10.952;2023-10-08T06:13:09;101366.25;;;16.65;87.89
23427;BME280;41148;45.420;10.952;2023-10-08T06:15:45;101377.09;;;16.64;88.25
23427;BME280;41148;45.420;10.952;2023-10-08T06:18:20;101357.53;;;16.60;87.96
23427;BME280;41148;45.420;10.952;2023-10-08T06:20:48;101379.28;;;16.76;88.27
23427;BME280;41148;45.420;10.952;2023-10-08T06:23:22;101377.47;;;16.76;87.71
23427;BME280;41148;45.420;10.952;2023-10-08T06:25:53;101376.53;;;16.98;86.94
23427;BME280;41148;45.420;10.952;2023-10-08T06:28:26;101385.31;;;17.03;86.64
23427;BME280;41148;45.420;10.952;2023-10-08T06:30:55;101387.66;;;17.10;86.41
23427;BME280;41148;45.420;10.952;2023-10-08T06:33:24;101385.84;;;17.11;86.20
23427;BME280;41148;45.420;10.952;2023-10-08T06:36:02;101376.28;;;17.24;85.43
23427;BME280;41148;45.420;10.952;2023-10-08T06:38:43;101388.25;;;17.37;84.60
23427;BME280;41148;45.420;10.952;2023-10-08T06:41:12;101370.59;;;17.51;84.51
23427;BME280;41148;45.420;10.952;2023-10-08T06:43:43;101375.56;;;17.60;84.69
23427;BME280;41148;45.420;10.952;2023-10-08T06:46:11;101387.84;;;17.65;84.15
23427;BME280;41148;45.420;10.952;2023-10-08T06:48:41;101388.22;;;17.58;81.78
23427;BME280;41148;45.420;10.952;2023-10-08T06:51:13;101391.25;;;17.70;81.25
23427;BME280;41148;45.420;10.952;2023-10-08T06:53:42;101395.34;;;17.79;79.67
23427;BME280;41148;45.420;10.952;2023-10-08T06:56:14;101406.78;;;18.03;78.81
23427;BME280;41148;45.420;10.952;2023-10-08T06:58:43;101397.19;;;18.16;78.43
23427;BME280;41148;45.420;10.952;2023-10-08T07:01:16;101393.66;;;18.14;77.10
23427;BME280;41148;45.420;10.952;2023-10-08T07:03:54;101404.66;;;18.28;77.27
23427;BME280;41148;45.420;10.952;2023-10-08T07:06:31;101408.91;;;18.34;76.26
23427;BME280;41148;45.420;10.952;2023-10-08T07:09:02;101400.19;;;18.46;75.15
23427;BME280;41148;45.420;10.952;2023-10-08T07:11:34;101409.41;;;18.59;72.67
23427;BME280;41148;45.420;10.952;2023-10-08T07:14:02;101398.19;;;18.69;72.56
23427;BME280;41148;45.420;10.952;2023-10-08T07:16:31;101400.88;;;18.69;68.69
23427;BME280;41148;45.420;10.952;2023-10-08T07:19:00;101391.63;;;18.74;69.71
23427;BME280;41148;45.420;10.952;2023-10-08T07:21:47;101392.25;;;18.79;68.62
23427;BME280;41148;45.420;10.952;2023-10-08T07:24:16;101399.66;;;18.93;67.63
23427;BME280;41148;45.420;10.952;2023-10-08T07:26:44;101390.22;;;19.02;67.90
23427;BME280;41148;45.420;10.952;2023-10-08T07:29:17;101386.13;;;19.10;67.48
23427;BME280;41148;45.420;10.952;2023-10-08T07:31:45;101395.00;;;19.30;67.30
23427;BME280;41148;45.420;10.952;2023-10-08T07:34:16;101397.94;;;19.42;66.30
23427;BME280;41148;45.420;10.952;2023-10-08T07:36:54;101395.38;;;19.39;65.26
23427;BME280;41148;45.420;10.952;2023-10-08T07:39:22;101411.66;;;19.55;64.68
23427;BME280;41148;45.420;10.952;2023-10-08T07:42:05;101402.00;;;19.84;63.61
23427;BME280;41148;45.420;10.952;2023-10-08T07:44:33;101390.59;;;20.26;61.25
23427;BME280;41148;45.420;10.952;2023-10-08T07:47:05;101396.81;;;20.28;60.69
23427;BME280;41148;45.420;10.952;2023-10-08T07:49:38;101404.22;;;20.41;61.11
23427;BME280;41148;45.420;10.952;2023-10-08T07:52:05;101402.66;;;20.37;60.88
23427;BME280;41148;45.420;10.952;2023-10-08T07:54:34;101410.56;;;20.71;62.15
23427;BME280;41148;45.420;10.952;2023-10-08T07:57:03;101415.34;;;20.82;62.68
23427;BME280;41148;45.420;10.952;2023-10-08T07:59:41;101392.16;;;21.22;63.20
23427;BME280;41148;45.420;10.952;2023-10-08T08:02:09;101407.63;;;22.07;61.17
23427;BME280;41148;45.420;10.952;2023-10-08T08:04:43;101407.53;;;21.94;61.11
23427;BME280;41148;45.420;10.952;2023-10-08T08:07:13;101396.06;;;21.02;64.85
23427;BME280;41148;45.420;10.952;2023-10-08T08:09:47;101396.94;;;21.03;65.77
23427;BME280;41148;45.420;10.952;2023-10-08T08:12:20;101384.72;;;23.19;58.11
23427;BME280;41148;45.420;10.952;2023-10-08T08:14:52;101391.16;;;25.38;50.89
23427;BME280;41148;45.420;10.952;2023-10-08T08:17:20;101400.91;;;26.75;46.63
23427;BME280;41148;45.420;10.952;2023-10-08T08:19:51;101394.91;;;27.02;45.40
23427;BME280;41148;45.420;10.952;2023-10-08T08:22:20;101392.28;;;27.53;44.38
23427;BME280;41148;45.420;10.952;2023-10-08T08:24:50;101390.63;;;27.62;44.10
23427;BME280;41148;45.420;10.952;2023-10-08T08:27:45;101388.25;;;29.17;40.67
23427;BME280;41148;45.420;10.952;2023-10-08T08:30:16;101388.78;;;29.59;39.22
23427;BME280;41148;45.420;10.952;2023-10-08T08:32:46;101396.03;;;28.63;40.81
23427;BME280;41148;45.420;10.952;2023-10-08T08:35:20;101397.34;;;28.69;40.97
23427;BME280;41148;45.420;10.952;2023-10-08T08:37:48;101389.50;;;29.51;39.80
23427;BME280;41148;45.420;10.952;2023-10-08T08:40:18;101389.94;;;29.56;38.49
23427;BME280;41148;45.420;10.952;2023-10-08T08:42:48;101398.06;;;29.85;37.87
23427;BME280;41148;45.420;10.952;2023-10-08T08:45:22;101388.44;;;29.05;38.89
23427;BME280;41148;45.420;10.952;2023-10-08T08:47:54;101396.47;;;28.78;38.82
23427;BME280;41148;45.420;10.952;2023-10-08T08:50:23;101396.34;;;29.08;39.17
23427;BME280;41148;45.420;10.952;2023-10-08T08:52:51;101395.03;;;29.03;39.12
23427;BME280;41148;45.420;10.952;2023-10-08T08:55:19;101393.16;;;28.15;40.11
23427;BME280;41148;45.420;10.952;2023-10-08T08:57:49;101390.66;;;28.02;41.01
23427;BME280;41148;45.420;10.952;2023-10-08T09:00:19;101389.97;;;27.28;42.90
23427;BME280;41148;45.420;10.952;2023-10-08T09:02:48;101407.03;;;26.88;42.82
23427;BME280;41148;45.420;10.952;2023-10-08T09:05:17;101405.88;;;26.15;44.79
23427;BME280;41148;45.420;10.952;2023-10-08T09:08:00;101397.84;;;25.45;46.33
23427;BME280;41148;45.420;10.952;2023-10-08T09:10:36;101404.59;;;24.82;47.63
23427;BME280;41148;45.420;10.952;2023-10-08T09:13:20;101400.72;;;24.13;49.78
23427;BME280;41148;45.420;10.952;2023-10-08T09:15:51;101405.75;;;23.93;50.74
23427;BME280;41148;45.420;10.952;2023-10-08T09:18:24;101409.66;;;23.64;51.45
23427;BME280;41148;45.420;10.952;2023-10-08T09:20:55;101403.59;;;23.60;52.14
23427;BME280;41148;45.420;10.952;2023-10-08T09:23:23;101396.84;;;23.79;51.40
23427;BME280;41148;45.420;10.952;2023-10-08T09:25:52;101401.28;;;23.80;51.83
23427;BME280;41148;45.420;10.952;2023-10-08T09:28:31;101404.44;;;23.74;51.96
23427;BME280;41148;45.420;10.952;2023-10-08T09:31:03;101404.75;;;23.82;52.25
23427;BME280;41148;45.420;10.952;2023-10-08T09:33:32;101401.84;;;23.85;51.77
23427;BME280;41148;45.420;10.952;2023-10-08T09:36:01;101399.53;;;24.04;51.44
23427;BME280;41148;45.420;10.952;2023-10-08T09:38:30;101400.72;;;24.13;51.14
23427;BME280;41148;45.420;10.952;2023-10-08T09:40:59;101392.22;;;23.92;51.54
23427;BME280;41148;45.420;10.952;2023-10-08T09:43:30;101395.41;;;23.73;52.36
23427;BME280;41148;45.420;10.952;2023-10-08T09:48:55;101401.38;;;23.91;52.07
23427;BME280;41148;45.420;10.952;2023-10-08T09:51:24;101399.75;;;23.88;52.64
23427;BME280;41148;45.420;10.952;2023-10-08T09:54:02;101391.75;;;23.74;52.96
23427;BME280;41148;45.420;10.952;2023-10-08T09:56:32;101389.88;;;23.62;53.16
23427;BME280;41148;45.420;10.952;2023-10-08T09:59:02;101390.63;;;23.89;52.39
23427;BME280;41148;45.420;10.952;2023-10-08T10:01:30;101392.22;;;24.05;50.78
23427;BME280;41148;45.420;10.952;2023-10-08T10:03:59;101392.19;;;24.17;52.05
23427;BME280;41148;45.420;10.952;2023-10-08T10:06:28;101380.50;;;24.28;51.40
23427;BME280;41148;45.420;10.952;2023-10-08T10:08:57;101381.97;;;24.08;52.42
23427;BME280;41148;45.420;10.952;2023-10-08T10:11:31;101378.72;;;24.03;52.68
23427;BME280;41148;45.420;10.952;2023-10-08T10:14:01;101382.59;;;24.12;52.58
23427;BME280;41148;45.420;10.952;2023-10-08T10:16:28;101386.81;;;24.28;51.81
23427;BME280;41148;45.420;10.952;2023-10-08T10:18:57;101372.97;;;24.32;51.45
23427;BME280;41148;45.420;10.952;2023-10-08T10:21:27;101377.66;;;24.42;51.55
23427;BME280;41148;45.420;10.952;2023-10-08T10:23:56;101378.34;;;24.57;50.37
23427;BME280;41148;45.420;10.952;2023-10-08T10:26:29;101376.44;;;24.46;50.46
23427;BME280;41148;45.420;10.952;2023-10-08T10:31:42;101368.50;;;24.78;50.10
23427;BME280;41148;45.420;10.952;2023-10-08T10:34:26;101362.88;;;24.93;49.88
23427;BME280;41148;45.420;10.952;2023-10-08T10:36:58;101356.53;;;24.81;50.83
23427;BME280;41148;45.420;10.952;2023-10-08T10:39:31;101339.81;;;24.86;47.56
23427;BME280;41148;45.420;10.952;2023-10-08T10:42:01;101343.53;;;24.84;49.44
23427;BME280;41148;45.420;10.952;2023-10-08T10:44:30;101345.16;;;24.98;49.78
23427;BME280;41148;45.420;10.952;2023-10-08T10:46:59;101341.78;;;25.19;46.82
23427;BME280;41148;45.420;10.952;2023-10-08T10:49:44;101335.22;;;25.21;44.81
23427;BME280;41148;45.420;10.952;2023-10-08T10:52:23;101330.03;;;25.29;44.86
23427;BME280;41148;45.420;10.952;2023-10-08T10:55:14;101330.78;;;25.31;44.50
23427;BME280;41148;45.420;10.952;2023-10-08T10:57:43;101329.31;;;25.38;44.74
23427;BME280;41148;45.420;10.952;2023-10-08T11:00:11;101324.47;;;25.31;44.59
23427;BME280;41148;45.420;10.952;2023-10-08T11:02:57;101320.75;;;25.32;44.23
23427;BME280;41148;45.420;10.952;2023-10-08T11:05:31;101316.16;;;25.44;42.82
23427;BME280;41148;45.420;10.952;2023-10-08T11:08:00;101305.84;;;25.47;41.64
23427;BME280;41148;45.420;10.952;2023-10-08T11:10:42;101309.22;;;25.39;42.70
23427;BME280;41148;45.420;10.952;2023-10-08T11:13:20;101308.47;;;25.49;41.29
23427;BME280;41148;45.420;10.952;2023-10-08T11:15:51;101313.06;;;25.59;42.58
23427;BME280;41148;45.420;10.952;2023-10-08T11:18:23;101304.84;;;25.37;42.80
23427;BME280;41148;45.420;10.952;2023-10-08T11:20:51;101302.25;;;25.35;43.87
23427;BME280;41148;45.420;10.952;2023-10-08T11:23:46;101300.28;;;25.37;44.15
23427;BME280;41148;45.420;10.952;2023-10-08T11:26:21;101286.75;;;25.47;44.34
23427;BME280;41148;45.420;10.952;2023-10-08T11:29:00;101291.72;;;25.64;43.17
23427;BME280;41148;45.420;10.952;2023-10-08T11:31:31;101277.19;;;25.64;43.94
23427;BME280;41148;45.420;10.952;2023-10-08T11:34:03;101289.63;;;25.68;43.85
23427;BME280;41148;45.420;10.952;2023-10-08T11:36:37;101280.56;;;25.56;43.55
23427;BME280;41148;45.420;10.952;2023-10-08T11:39:17;101266.94;;;25.67;43.83
23427;BME280;41148;45.420;10.952;2023-10-08T11:42:01;101284.03;;;25.81;43.33
23427;BME280;41148;45.420;10.952;2023-10-08T11:44:44;101282.66;;;25.98;42.77
23427;BME280;41148;45.420;10.952;2023-10-08T11:47:12;101271.97;;;26.06;43.20
23427;BME280;41148;45.420;10.952;2023-10-08T11:49:41;101260.53;;;26.01;43.38
23427;BME280;41148;45.420;10.952;2023-10-08T11:52:15;101271.59;;;25.99;43.63
23427;BME280;41148;45.420;10.952;2023-10-08T11:54:44;101269.69;;;26.11;43.61
23427;BME280;41148;45.420;10.952;2023-10-08T11:57:11;101256.00;;;26.22;43.46
23427;BME280;41148;45.420;10.952;2023-10-08T11:59:39;101261.22;;;26.14;43.57
23427;BME280;41148;45.420;10.952;2023-10-08T12:02:07;101261.72;;;26.19;43.48
23427;BME280;41148;45.420;10.952;2023-10-08T12:04:34;101258.88;;;26.20;43.64
23427;BME280;41148;45.420;10.952;2023-10-08T12:07:03;101250.31;;;26.14;43.17
23427;BME280;41148;45.420;10.952;2023-10-08T12:09:34;101251.03;;;26.27;43.02
23427;BME280;41148;45.420;10.952;2023-10-08T12:12:05;101246.44;;;26.28;42.75
23427;BME280;41148;45.420;10.952;2023-10-08T12:14:36;101253.13;;;26.35;43.24
23427;BME280;41148;45.420;10.952;2023-10-08T12:17:05;101246.53;;;26.37;42.78
23427;BME280;41148;45.420;10.952;2023-10-08T12:19:38;101250.09;;;26.49;42.26
23427;BME280;41148;45.420;10.952;2023-10-08T12:22:10;101236.41;;;26.49;42.08
23427;BME280;41148;45.420;10.952;2023-10-08T12:24:42;101242.03;;;26.47;41.83
23427;BME280;41148;45.420;10.952;2023-10-08T12:27:11;101231.25;;;26.35;41.62
23427;BME280;41148;45.420;10.952;2023-10-08T12:29:39;101226.91;;;26.32;42.04
23427;BME280;41148;45.420;10.952;2023-10-08T12:32:07;101221.69;;;26.40;41.64
23427;BME280;41148;45.420;10.952;2023-10-08T12:34:45;101231.59;;;26.41;42.05
23427;BME280;41148;45.420;10.952;2023-10-08T12:37:14;101234.97;;;26.45;42.02
23427;BME280;41148;45.420;10.952;2023-10-08T12:39:42;101234.56;;;26.49;41.14
23427;BME280;41148;45.420;10.952;2023-10-08T12:42:28;101222.16;;;26.45;40.53
23427;BME280;41148;45.420;10.952;2023-10-08T12:44:55;101223.63;;;26.49;40.36
23427;BME280;41148;45.420;10.952;2023-10-08T12:47:26;101223.41;;;26.41;40.44
23427;BME280;41148;45.420;10.952;2023-10-08T12:49:56;101219.22;;;26.37;40.24
23427;BME280;41148;45.420;10.952;2023-10-08T12:52:25;101211.75;;;26.39;40.49
23427;BME280;41148;45.420;10.952;2023-10-08T12:54:55;101214.09;;;26.33;40.95
23427;BME280;41148;45.420;10.952;2023-10-08T12:57:25;101220.03;;;26.49;40.95
23427;BME280;41148;45.420;10.952;2023-10-08T13:00:00;101202.19;;;26.45;42.15
23427;BME280;41148;45.420;10.952;2023-10-08T13:02:28;101201.19;;;26.46;42.29
23427;BME280;41148;45.420;10.952;2023-10-08T13:04:56;101202.19;;;26.45;41.79
23427;BME280;41148;45.420;10.952;2023-10-08T13:07:25;101205.72;;;26.57;41.42
23427;BME280;41148;45.420;10.952;2023-10-08T13:09:54;101203.22;;;26.53;41.44
23427;BME280;41148;45.420;10.952;2023-10-08T13:12:21;101194.94;;;26.44;41.59
23427;BME280;41148;45.420;10.952;2023-10-08T13:14:48;101197.44;;;26.47;41.12
23427;BME280;41148;45.420;10.952;2023-10-08T13:17:17;101197.31;;;26.48;40.72